createdAt,value
2016-07-19T00:00:58.524Z,1011.74
2016-07-19T00:01:58.502Z,1011.78
2016-07-19T00:02:58.484Z,1011.75
2016-07-19T00:03:58.467Z,1011.77
2016-07-19T00:04:58.450Z,1011.75
2016-07-19T00:05:58.431Z,1011.75
2016-07-19T00:06:58.414Z,1011.73
2016-07-19T00:07:58.396Z,1011.72
2016-07-19T00:08:58.379Z,1011.74
2016-07-19T00:09:58.361Z,1011.74
2016-07-19T00:10:58.342Z,1011.75
2016-07-19T00:11:58.326Z,1011.74
2016-07-19T00:12:58.307Z,1011.73
2016-07-19T00:13:58.289Z,1011.74
2016-07-19T00:14:58.272Z,1011.78
2016-07-19T00:15:58.254Z,1011.74
2016-07-19T00:16:58.236Z,1011.74
2016-07-19T00:17:58.218Z,1011.73
2016-07-19T00:18:58.201Z,1011.68
2016-07-19T00:19:58.182Z,1011.68
2016-07-19T00:20:58.165Z,1011.68
2016-07-19T00:21:58.146Z,1011.65
2016-07-19T00:22:58.129Z,1011.65
2016-07-19T00:23:58.110Z,1011.64
2016-07-19T00:24:58.092Z,1011.67
2016-07-19T00:25:58.079Z,1011.63
2016-07-19T00:26:58.057Z,1011.65
2016-07-19T00:27:58.038Z,1011.63
2016-07-19T00:28:58.021Z,1011.64
2016-07-19T00:29:58.003Z,1011.59
2016-07-19T00:30:57.985Z,1011.53
2016-07-19T00:31:57.967Z,1011.55
2016-07-19T00:32:57.950Z,1011.53
2016-07-19T00:33:57.933Z,1011.52
2016-07-19T00:34:57.914Z,1011.52
2016-07-19T00:35:57.897Z,1011.55
2016-07-19T00:36:57.879Z,1011.56
2016-07-19T00:37:57.861Z,1011.53
2016-07-19T00:38:57.843Z,1011.56
2016-07-19T00:39:57.826Z,1011.52
2016-07-19T00:40:57.808Z,1011.5
2016-07-19T00:41:57.795Z,1011.51
2016-07-19T00:42:57.773Z,1011.53
2016-07-19T00:43:57.753Z,1011.56
2016-07-19T00:44:57.735Z,1011.53
2016-07-19T00:45:57.716Z,1011.54
2016-07-19T00:46:57.699Z,1011.56
2016-07-19T00:47:57.681Z,1011.55
2016-07-19T00:48:57.664Z,1011.55
2016-07-19T00:49:57.645Z,1011.58
2016-07-19T00:50:57.626Z,1011.57
2016-07-19T00:51:57.609Z,1011.58
2016-07-19T00:52:57.591Z,1011.52
2016-07-19T00:53:57.573Z,1011.52
2016-07-19T00:54:57.555Z,1011.5
2016-07-19T00:55:57.536Z,1011.5
2016-07-19T00:56:57.518Z,1011.48
2016-07-19T00:57:57.499Z,1011.49
2016-07-19T00:58:57.482Z,1011.48
2016-07-19T00:59:57.464Z,1011.48
2016-07-19T01:00:57.444Z,1011.46
2016-07-19T01:01:57.427Z,1011.46
2016-07-19T01:02:57.411Z,1011.46
2016-07-19T01:03:57.396Z,1011.45
2016-07-19T01:04:57.371Z,1011.43
2016-07-19T01:05:57.359Z,1011.42
2016-07-19T01:06:57.334Z,1011.44
2016-07-19T01:07:57.316Z,1011.41
2016-07-19T01:08:57.297Z,1011.42
2016-07-19T01:09:57.280Z,1011.39
2016-07-19T01:10:57.261Z,1011.42
2016-07-19T01:11:57.243Z,1011.39
2016-07-19T01:12:57.224Z,1011.43
2016-07-19T01:13:57.207Z,1011.41
2016-07-19T01:14:57.187Z,1011.42
2016-07-19T01:15:57.169Z,1011.42
2016-07-19T01:16:57.151Z,1011.45
2016-07-19T01:17:57.132Z,1011.43
2016-07-19T01:18:57.113Z,1011.4
2016-07-19T01:19:57.095Z,1011.39
2016-07-19T01:20:57.077Z,1011.41
2016-07-19T01:21:57.059Z,1011.42
2016-07-19T01:22:57.040Z,1011.46
2016-07-19T01:23:57.021Z,1011.41
2016-07-19T01:24:57.002Z,1011.43
2016-07-19T01:25:56.984Z,1011.44
2016-07-19T01:26:56.966Z,1011.42
2016-07-19T01:27:56.948Z,1011.43
2016-07-19T01:28:56.929Z,1011.42
2016-07-19T01:29:56.910Z,1011.4
2016-07-19T01:30:56.892Z,1011.39
2016-07-19T01:31:56.874Z,1011.41
2016-07-19T01:32:56.855Z,1011.4
2016-07-19T01:33:56.836Z,1011.38
2016-07-19T01:34:56.818Z,1011.37
2016-07-19T01:35:56.800Z,1011.41
2016-07-19T01:36:56.780Z,1011.36
2016-07-19T01:37:56.762Z,1011.39
2016-07-19T01:38:56.743Z,1011.4
2016-07-19T01:39:56.725Z,1011.42
2016-07-19T01:40:56.706Z,1011.42
2016-07-19T01:41:56.687Z,1011.4
2016-07-19T01:42:56.669Z,1011.41
2016-07-19T01:43:56.650Z,1011.37
2016-07-19T01:44:56.633Z,1011.39
2016-07-19T01:45:56.611Z,1011.41
2016-07-19T01:46:56.593Z,1011.41
2016-07-19T01:47:56.573Z,1011.4
2016-07-19T01:48:56.561Z,1011.38
2016-07-19T01:49:56.536Z,1011.34
2016-07-19T01:50:56.518Z,1011.37
2016-07-19T01:51:56.498Z,1011.34
2016-07-19T01:52:56.480Z,1011.36
2016-07-19T01:53:56.462Z,1011.3
2016-07-19T01:54:56.443Z,1011.36
2016-07-19T01:55:56.424Z,1011.37
2016-07-19T01:56:56.405Z,1011.4
2016-07-19T01:57:56.387Z,1011.39
2016-07-19T01:58:56.366Z,1011.37
2016-07-19T01:59:56.348Z,1011.41
2016-07-19T02:00:56.329Z,1011.39
2016-07-19T02:01:56.311Z,1011.39
2016-07-19T02:02:56.292Z,1011.37
2016-07-19T02:03:56.272Z,1011.38
2016-07-19T02:04:56.259Z,1011.37
2016-07-19T02:05:56.235Z,1011.37
2016-07-19T02:06:56.216Z,1011.37
2016-07-19T02:07:56.197Z,1011.38
2016-07-19T02:08:56.178Z,1011.34
2016-07-19T02:09:56.159Z,1011.33
2016-07-19T02:10:56.139Z,1011.35
2016-07-19T02:11:56.121Z,1011.33
2016-07-19T02:12:56.102Z,1011.33
2016-07-19T02:13:56.083Z,1011.32
2016-07-19T02:14:56.063Z,1011.31
2016-07-19T02:15:56.045Z,1011.29
2016-07-19T02:16:56.026Z,1011.35
2016-07-19T02:17:56.007Z,1011.28
2016-07-19T02:18:55.987Z,1011.29
2016-07-19T02:19:55.968Z,1011.28
2016-07-19T02:20:55.948Z,1011.28
2016-07-19T02:21:55.930Z,1011.32
2016-07-19T02:22:55.912Z,1011.29
2016-07-19T02:23:55.891Z,1011.32
2016-07-19T02:24:55.872Z,1011.3
2016-07-19T02:25:55.853Z,1011.33
2016-07-19T02:26:55.834Z,1011.3
2016-07-19T02:27:55.815Z,1011.33
2016-07-19T02:28:55.795Z,1011.32
2016-07-19T02:29:55.778Z,1011.31
2016-07-19T02:30:55.757Z,1011.29
2016-07-19T02:31:55.736Z,1011.31
2016-07-19T02:32:55.717Z,1011.3
2016-07-19T02:33:55.698Z,1011.35
2016-07-19T02:34:55.680Z,1011.33
2016-07-19T02:35:55.660Z,1011.32
2016-07-19T02:36:55.641Z,1011.31
2016-07-19T02:37:55.622Z,1011.3
2016-07-19T02:38:55.603Z,1011.31
2016-07-19T02:39:55.583Z,1011.32
2016-07-19T02:40:55.563Z,1011.33
2016-07-19T02:41:55.544Z,1011.27
2016-07-19T02:42:55.524Z,1011.32
2016-07-19T02:43:55.505Z,1011.28
2016-07-19T02:44:55.486Z,1011.3
2016-07-19T02:45:55.467Z,1011.32
2016-07-19T02:46:55.447Z,1011.3
2016-07-19T02:47:55.431Z,1011.29
2016-07-19T02:48:55.409Z,1011.29
2016-07-19T02:49:55.390Z,1011.28
2016-07-19T02:50:55.369Z,1011.31
2016-07-19T02:51:55.350Z,1011.3
2016-07-19T02:52:55.334Z,1011.3
2016-07-19T02:53:55.311Z,1011.28
2016-07-19T02:54:55.292Z,1011.28
2016-07-19T02:55:55.272Z,1011.23
2016-07-19T02:56:55.254Z,1011.26
2016-07-19T02:57:55.233Z,1011.25
2016-07-19T02:58:55.214Z,1011.2
2016-07-19T02:59:55.195Z,1011.23
2016-07-19T03:00:55.176Z,1011.2
2016-07-19T03:01:55.157Z,1011.23
2016-07-19T03:02:55.137Z,1011.21
2016-07-19T03:03:55.117Z,1011.23
2016-07-19T03:04:55.097Z,1011.21
2016-07-19T03:05:55.079Z,1011.2
2016-07-19T03:06:55.059Z,1011.23
2016-07-19T03:07:55.040Z,1011.24
2016-07-19T03:08:55.019Z,1011.21
2016-07-19T03:09:55.003Z,1011.2
2016-07-19T03:10:55.031Z,1011.2
2016-07-19T03:11:54.961Z,1011.24
2016-07-19T03:12:54.942Z,1011.2
2016-07-19T03:13:54.922Z,1011.18
2016-07-19T03:14:54.903Z,1011.17
2016-07-19T03:15:54.882Z,1011.14
2016-07-19T03:16:54.863Z,1011.13
2016-07-19T03:17:54.843Z,1011.12
2016-07-19T03:18:54.824Z,1011.13
2016-07-19T03:19:54.803Z,1011.07
2016-07-19T03:20:54.785Z,1011.13
2016-07-19T03:21:54.765Z,1011.14
2016-07-19T03:22:54.745Z,1011.12
2016-07-19T03:23:54.725Z,1011.12
2016-07-19T03:24:54.706Z,1011.14
2016-07-19T03:25:54.687Z,1011.18
2016-07-19T03:26:54.666Z,1011.17
2016-07-19T03:27:54.647Z,1011.14
2016-07-19T03:28:54.627Z,1011.14
2016-07-19T03:29:54.608Z,1011.16
2016-07-19T03:30:54.588Z,1011.15
2016-07-19T03:31:54.568Z,1011.16
2016-07-19T03:32:54.549Z,1011.21
2016-07-19T03:33:54.528Z,1011.19
2016-07-19T03:34:54.509Z,1011.16
2016-07-19T03:35:54.489Z,1011.18
2016-07-19T03:36:54.470Z,1011.17
2016-07-19T03:37:54.449Z,1011.18
2016-07-19T03:38:54.430Z,1011.18
2016-07-19T03:39:54.410Z,1011.16
2016-07-19T03:40:54.391Z,1011.15
2016-07-19T03:41:54.371Z,1011.17
2016-07-19T03:42:54.352Z,1011.18
2016-07-19T03:43:54.332Z,1011.15
2016-07-19T03:44:54.311Z,1011.15
2016-07-19T03:45:54.293Z,1011.14
2016-07-19T03:46:54.272Z,1011.16
2016-07-19T03:47:54.253Z,1011.15
2016-07-19T03:48:54.233Z,1011.15
2016-07-19T03:49:54.213Z,1011.14
2016-07-19T03:50:54.194Z,1011.14
2016-07-19T03:51:54.174Z,1011.14
2016-07-19T03:52:54.155Z,1011.13
2016-07-19T03:53:54.134Z,1011.13
2016-07-19T03:54:54.115Z,1011.15
2016-07-19T03:55:54.094Z,1011.16
2016-07-19T03:56:54.075Z,1011.16
2016-07-19T03:57:54.056Z,1011.15
2016-07-19T03:58:54.037Z,1011.15
2016-07-19T03:59:54.016Z,1011.12
2016-07-19T04:00:53.997Z,1011.15
2016-07-19T04:01:53.978Z,1011.15
2016-07-19T04:02:53.958Z,1011.18
2016-07-19T04:03:53.938Z,1011.19
2016-07-19T04:04:53.919Z,1011.18
2016-07-19T04:05:53.898Z,1011.17
2016-07-19T04:06:53.879Z,1011.17
2016-07-19T04:07:53.859Z,1011.17
2016-07-19T04:08:53.840Z,1011.2
2016-07-19T04:09:53.820Z,1011.17
2016-07-19T04:10:53.801Z,1011.2
2016-07-19T04:11:53.781Z,1011.16
2016-07-19T04:12:53.762Z,1011.15
2016-07-19T04:13:53.742Z,1011.13
2016-07-19T04:14:53.722Z,1011.11
2016-07-19T04:15:53.703Z,1011.12
2016-07-19T04:16:53.683Z,1011.12
2016-07-19T04:17:53.663Z,1011.09
2016-07-19T04:18:53.643Z,1011.12
2016-07-19T04:19:53.625Z,1011.09
2016-07-19T04:20:53.606Z,1011.14
2016-07-19T04:21:53.586Z,1011.1
2016-07-19T04:22:53.566Z,1011.11
2016-07-19T04:23:53.547Z,1011.09
2016-07-19T04:24:53.527Z,1011.13
2016-07-19T04:25:53.508Z,1011.16
2016-07-19T04:26:53.488Z,1011.16
2016-07-19T04:27:53.470Z,1011.15
2016-07-19T04:28:53.450Z,1011.17
2016-07-19T04:29:53.430Z,1011.14
2016-07-19T04:30:53.411Z,1011.14
2016-07-19T04:31:53.391Z,1011.16
2016-07-19T04:32:53.372Z,1011.14
2016-07-19T04:33:53.352Z,1011.16
2016-07-19T04:34:53.334Z,1011.19
2016-07-19T04:35:53.315Z,1011.17
2016-07-19T04:36:53.295Z,1011.19
2016-07-19T04:37:53.276Z,1011.16
2016-07-19T04:38:53.257Z,1011.2
2016-07-19T04:39:53.237Z,1011.23
2016-07-19T04:40:53.218Z,1011.22
2016-07-19T04:41:53.200Z,1011.24
2016-07-19T04:42:53.180Z,1011.26
2016-07-19T04:43:53.161Z,1011.24
2016-07-19T04:44:53.141Z,1011.32
2016-07-19T04:45:53.123Z,1011.3
2016-07-19T04:46:53.103Z,1011.3
2016-07-19T04:47:53.084Z,1011.27
2016-07-19T04:48:53.087Z,1011.31
2016-07-19T04:49:53.046Z,1011.31
2016-07-19T04:50:53.026Z,1011.32
2016-07-19T04:51:53.007Z,1011.33
2016-07-19T04:52:52.988Z,1011.35
2016-07-19T04:53:52.969Z,1011.33
2016-07-19T04:54:52.950Z,1011.34
2016-07-19T04:55:52.930Z,1011.34
2016-07-19T04:56:52.912Z,1011.37
2016-07-19T04:57:52.891Z,1011.35
2016-07-19T04:58:52.874Z,1011.32
2016-07-19T04:59:52.854Z,1011.38
2016-07-19T05:00:52.835Z,1011.34
2016-07-19T05:01:52.817Z,1011.35
2016-07-19T05:02:52.797Z,1011.34
2016-07-19T05:03:52.778Z,1011.33
2016-07-19T05:04:52.759Z,1011.37
2016-07-19T05:05:52.740Z,1011.31
2016-07-19T05:06:52.972Z,1011.32
2016-07-19T05:07:52.703Z,1011.37
2016-07-19T05:08:52.683Z,1011.4
2016-07-19T05:09:52.665Z,1011.34
2016-07-19T05:10:52.675Z,1011.32
2016-07-19T05:11:52.627Z,1011.33
2016-07-19T05:12:52.607Z,1011.35
2016-07-19T05:13:52.590Z,1011.29
2016-07-19T05:14:52.570Z,1011.34
2016-07-19T05:15:52.552Z,1011.31
2016-07-19T05:16:52.532Z,1011.33
2016-07-19T05:17:52.515Z,1011.32
2016-07-19T05:18:52.495Z,1011.35
2016-07-19T05:19:52.476Z,1011.33
2016-07-19T05:20:52.458Z,1011.39
2016-07-19T05:21:52.440Z,1011.36
2016-07-19T05:22:52.422Z,1011.35
2016-07-19T05:23:52.403Z,1011.36
2016-07-19T05:24:52.385Z,1011.41
2016-07-19T05:25:52.367Z,1011.42
2016-07-19T05:26:52.349Z,1011.39
2016-07-19T05:27:52.329Z,1011.39
2016-07-19T05:28:52.311Z,1011.41
2016-07-19T05:29:52.294Z,1011.39
2016-07-19T05:30:52.275Z,1011.45
2016-07-19T05:31:52.256Z,1011.44
2016-07-19T05:32:52.239Z,1011.44
2016-07-19T05:33:52.358Z,1011.45
2016-07-19T05:34:52.203Z,1011.46
2016-07-19T05:35:52.186Z,1011.4
2016-07-19T05:36:52.168Z,1011.44
2016-07-19T05:37:52.150Z,1011.41
2016-07-19T05:38:52.132Z,1011.43
2016-07-19T05:39:52.117Z,1011.48
2016-07-19T05:40:52.097Z,1011.45
2016-07-19T05:41:52.080Z,1011.41
2016-07-19T05:42:52.062Z,1011.41
2016-07-19T05:43:52.046Z,1011.45
2016-07-19T05:44:52.029Z,1011.44
2016-07-19T05:45:52.015Z,1011.46
2016-07-19T05:46:51.994Z,1011.49
2016-07-19T05:47:51.979Z,1011.45
2016-07-19T05:48:51.962Z,1011.48
2016-07-19T05:49:51.945Z,1011.47
2016-07-19T05:50:51.929Z,1011.49
2016-07-19T05:51:51.913Z,1011.46
2016-07-19T05:52:51.896Z,1011.46
2016-07-19T05:53:51.879Z,1011.45
2016-07-19T05:54:51.864Z,1011.48
2016-07-19T05:55:51.848Z,1011.47
2016-07-19T05:56:51.832Z,1011.47
2016-07-19T05:57:51.816Z,1011.47
2016-07-19T05:58:51.800Z,1011.44
2016-07-19T05:59:51.786Z,1011.48
2016-07-19T06:00:51.769Z,1011.48
2016-07-19T06:01:51.755Z,1011.46
2016-07-19T06:02:51.740Z,1011.5
2016-07-19T06:03:51.724Z,1011.5
2016-07-19T06:04:51.710Z,1011.49
2016-07-19T06:05:51.695Z,1011.53
2016-07-19T06:06:51.681Z,1011.54
2016-07-19T06:07:51.664Z,1011.54
2016-07-19T06:08:51.651Z,1011.54
2016-07-19T06:09:51.636Z,1011.55
2016-07-19T06:10:51.622Z,1011.55
2016-07-19T06:11:51.609Z,1011.6
2016-07-19T06:12:51.594Z,1011.59
2016-07-19T06:13:51.581Z,1011.6
2016-07-19T06:14:51.618Z,1011.63
2016-07-19T06:15:51.552Z,1011.66
2016-07-19T06:16:51.538Z,1011.62
2016-07-19T06:17:51.576Z,1011.65
2016-07-19T06:18:51.510Z,1011.62
2016-07-19T06:19:51.523Z,1011.63
2016-07-19T06:20:51.484Z,1011.62
2016-07-19T06:21:51.471Z,1011.64
2016-07-19T06:22:51.518Z,1011.67
2016-07-19T06:23:51.445Z,1011.66
2016-07-19T06:24:51.507Z,1011.66
2016-07-19T06:25:51.419Z,1011.68
2016-07-19T06:26:51.410Z,1011.69
2016-07-19T06:27:51.396Z,1011.67
2016-07-19T06:28:51.391Z,1011.6
2016-07-19T06:29:51.382Z,1011.61
2016-07-19T06:30:51.441Z,1011.62
2016-07-19T06:31:51.349Z,1011.58
2016-07-19T06:32:51.337Z,1011.55
2016-07-19T06:33:51.329Z,1011.55
2016-07-19T06:34:51.382Z,1011.57
2016-07-19T06:35:51.303Z,1011.57
2016-07-19T06:36:51.474Z,1011.53
2016-07-19T06:37:51.355Z,1011.56
2016-07-19T06:38:51.270Z,1011.57
2016-07-19T06:39:51.617Z,1011.56
2016-07-19T06:40:51.252Z,1011.55
2016-07-19T06:41:51.240Z,1011.56
2016-07-19T06:42:51.264Z,1011.52
2016-07-19T06:43:51.217Z,1011.56
2016-07-19T06:44:51.208Z,1011.55
2016-07-19T06:45:51.198Z,1011.52
2016-07-19T06:46:51.189Z,1011.53
2016-07-19T06:47:51.179Z,1011.55
2016-07-19T06:48:51.171Z,1011.52
2016-07-19T06:49:51.160Z,1011.52
2016-07-19T06:50:51.274Z,1011.48
2016-07-19T06:51:51.164Z,1011.51
2016-07-19T06:52:51.132Z,1011.51
2016-07-19T06:53:51.123Z,1011.5
2016-07-19T06:54:51.175Z,1011.46
2016-07-19T06:55:51.121Z,1011.43
2016-07-19T06:56:51.097Z,1011.48
2016-07-19T06:57:51.089Z,1011.45
2016-07-19T06:58:51.080Z,1011.48
2016-07-19T06:59:51.123Z,1011.47
2016-07-19T07:00:51.367Z,1011.45
2016-07-19T07:01:51.120Z,1011.45
2016-07-19T07:02:51.160Z,1011.47
2016-07-19T07:03:51.039Z,1011.43
2016-07-19T07:04:51.415Z,1011.46
2016-07-19T07:05:51.073Z,1011.46
2016-07-19T07:06:51.016Z,1011.45
2016-07-19T07:07:51.045Z,1011.44
2016-07-19T07:08:51.017Z,1011.42
2016-07-19T07:09:51.090Z,1011.42
2016-07-19T07:10:51.013Z,1011.42
2016-07-19T07:11:50.978Z,1011.46
2016-07-19T07:12:51.018Z,1011.41
2016-07-19T07:13:51.063Z,1011.44
2016-07-19T07:14:51.008Z,1011.42
2016-07-19T07:15:50.972Z,1011.42
2016-07-19T07:16:50.953Z,1011.44
2016-07-19T07:17:50.935Z,1011.42
2016-07-19T07:18:50.933Z,1011.43
2016-07-19T07:19:50.922Z,1011.41
2016-07-19T07:20:50.969Z,1011.39
2016-07-19T07:21:51.087Z,1011.43
2016-07-19T07:22:51.151Z,1011.36
2016-07-19T07:23:51.086Z,1011.39
2016-07-19T07:24:51.038Z,1011.39
2016-07-19T07:25:50.964Z,1011.39
2016-07-19T07:26:51.094Z,1011.35
2016-07-19T07:27:51.021Z,1011.37
2016-07-19T07:28:51.064Z,1011.38
2016-07-19T07:29:51.003Z,1011.41
2016-07-19T07:30:51.046Z,1011.41
2016-07-19T07:31:51.017Z,1011.42
2016-07-19T07:32:50.893Z,1011.42
2016-07-19T07:33:50.928Z,1011.42
2016-07-19T07:34:50.881Z,1011.41
2016-07-19T07:35:50.877Z,1011.37
2016-07-19T07:36:50.819Z,1011.35
2016-07-19T07:37:50.862Z,1011.34
2016-07-19T07:38:50.805Z,1011.33
2016-07-19T07:39:50.810Z,1011.32
2016-07-19T07:40:50.859Z,1011.4
2016-07-19T07:41:50.790Z,1011.34
2016-07-19T07:42:50.859Z,1011.36
2016-07-19T07:43:50.778Z,1011.34
2016-07-19T07:44:51.011Z,1011.32
2016-07-19T07:45:50.821Z,1011.34
2016-07-19T07:46:50.847Z,1011.36
2016-07-19T07:47:51.037Z,1011.35
2016-07-19T07:48:50.942Z,1011.34
2016-07-19T07:49:50.749Z,1011.32
2016-07-19T07:50:50.744Z,1011.37
2016-07-19T07:51:50.934Z,1011.34
2016-07-19T07:52:50.930Z,1011.33
2016-07-19T07:53:50.730Z,1011.32
2016-07-19T07:54:50.726Z,1011.32
2016-07-19T07:55:50.769Z,1011.35
2016-07-19T07:56:50.717Z,1011.35
2016-07-19T07:57:50.711Z,1011.33
2016-07-19T07:58:50.753Z,1011.34
2016-07-19T07:59:50.706Z,1011.34
2016-07-19T08:00:50.752Z,1011.35
2016-07-19T08:01:50.973Z,1011.3
2016-07-19T08:02:50.858Z,1011.34
2016-07-19T08:03:50.939Z,1011.29
2016-07-19T08:04:50.682Z,1011.33
2016-07-19T08:05:50.945Z,1011.31
2016-07-19T08:06:50.674Z,1011.31
2016-07-19T08:07:50.681Z,1011.33
2016-07-19T08:08:50.666Z,1011.35
2016-07-19T08:09:50.666Z,1011.37
2016-07-19T08:10:50.722Z,1011.35
2016-07-19T08:11:50.889Z,1011.34
2016-07-19T08:12:50.832Z,1011.39
2016-07-19T08:13:50.649Z,1011.37
2016-07-19T08:14:50.652Z,1011.38
2016-07-19T08:15:51.013Z,1011.39
2016-07-19T08:16:50.730Z,1011.4
2016-07-19T08:17:50.771Z,1011.4
2016-07-19T08:18:50.632Z,1011.38
2016-07-19T08:19:50.704Z,1011.38
2016-07-19T08:20:50.626Z,1011.37
2016-07-19T08:21:50.624Z,1011.38
2016-07-19T08:22:50.620Z,1011.34
2016-07-19T08:23:50.723Z,1011.34
2016-07-19T08:24:50.920Z,1011.32
2016-07-19T08:25:50.613Z,1011.35
2016-07-19T08:26:50.753Z,1011.31
2016-07-19T08:27:50.847Z,1011.33
2016-07-19T08:28:50.843Z,1011.34
2016-07-19T08:29:50.726Z,1011.33
2016-07-19T08:30:50.653Z,1011.36
2016-07-19T08:31:50.653Z,1011.36
2016-07-19T08:32:50.714Z,1011.36
2016-07-19T08:33:50.650Z,1011.37
2016-07-19T08:34:50.671Z,1011.41
2016-07-19T08:35:50.862Z,1011.37
2016-07-19T08:36:50.641Z,1011.33
2016-07-19T08:37:50.791Z,1011.37
2016-07-19T08:38:50.766Z,1011.36
2016-07-19T08:39:50.615Z,1011.39
2016-07-19T08:40:50.580Z,1011.38
2016-07-19T08:41:50.969Z,1011.36
2016-07-19T08:42:50.658Z,1011.4
2016-07-19T08:43:50.575Z,1011.38
2016-07-19T08:44:50.615Z,1011.39
2016-07-19T08:45:50.635Z,1011.37
2016-07-19T08:46:50.571Z,1011.35
2016-07-19T08:47:50.749Z,1011.33
2016-07-19T08:48:50.566Z,1011.32
2016-07-19T08:49:50.569Z,1011.28
2016-07-19T08:50:50.562Z,1011.36
2016-07-19T08:51:50.561Z,1011.33
2016-07-19T08:52:50.566Z,1011.35
2016-07-19T08:53:50.558Z,1011.36
2016-07-19T08:54:50.558Z,1011.39
2016-07-19T08:55:50.556Z,1011.36
2016-07-19T08:56:50.557Z,1011.38
2016-07-19T08:57:50.552Z,1011.34
2016-07-19T08:58:50.772Z,1011.37
2016-07-19T08:59:50.687Z,1011.34
2016-07-19T09:00:50.550Z,1011.35
2016-07-19T09:01:50.548Z,1011.4
2016-07-19T09:02:50.547Z,1011.45
2016-07-19T09:03:50.545Z,1011.42
2016-07-19T09:04:50.545Z,1011.36
2016-07-19T09:05:50.553Z,1011.38
2016-07-19T09:06:50.542Z,1011.36
2016-07-19T09:07:50.540Z,1011.37
2016-07-19T09:08:50.588Z,1011.32
2016-07-19T09:09:50.758Z,1011.39
2016-07-19T09:10:50.538Z,1011.38
2016-07-19T09:11:50.539Z,1011.39
2016-07-19T09:12:50.538Z,1011.33
2016-07-19T09:13:50.654Z,1011.33
2016-07-19T09:14:50.559Z,1011.34
2016-07-19T09:15:50.567Z,1011.33
2016-07-19T09:16:50.611Z,1011.3
2016-07-19T09:17:50.566Z,1011.3
2016-07-19T09:18:50.533Z,1011.31
2016-07-19T09:19:50.532Z,1011.31
2016-07-19T09:20:50.533Z,1011.33
2016-07-19T09:21:50.574Z,1011.3
2016-07-19T09:22:50.531Z,1011.31
2016-07-19T09:23:50.533Z,1011.29
2016-07-19T09:24:50.533Z,1011.27
2016-07-19T09:25:50.680Z,1011.28
2016-07-19T09:26:50.532Z,1011.28
2016-07-19T09:27:50.715Z,1011.27
2016-07-19T09:28:50.529Z,1011.27
2016-07-19T09:29:50.578Z,1011.21
2016-07-19T09:30:50.572Z,1011.23
2016-07-19T09:31:50.525Z,1011.27
2016-07-19T09:32:50.540Z,1011.23
2016-07-19T09:33:50.524Z,1011.25
2016-07-19T09:34:50.525Z,1011.25
2016-07-19T09:35:50.526Z,1011.22
2016-07-19T09:36:50.578Z,1011.22
2016-07-19T09:37:50.525Z,1011.21
2016-07-19T09:38:50.525Z,1011.24
2016-07-19T09:39:50.524Z,1011.2
2016-07-19T09:40:50.876Z,1011.2
2016-07-19T09:41:50.556Z,1011.22
2016-07-19T09:42:50.524Z,1011.21
2016-07-19T09:43:50.536Z,1011.24
2016-07-19T09:44:50.594Z,1011.21
2016-07-19T09:45:50.586Z,1011.15
2016-07-19T09:46:50.736Z,1011.17
2016-07-19T09:47:50.661Z,1011.2
2016-07-19T09:48:50.527Z,1011.14
2016-07-19T09:49:50.631Z,1011.16
2016-07-19T09:50:50.527Z,1011.14
2016-07-19T09:51:50.529Z,1011.2
2016-07-19T09:52:50.529Z,1011.19
2016-07-19T09:53:50.532Z,1011.11
2016-07-19T09:54:50.572Z,1011.11
2016-07-19T09:55:50.531Z,1011.1
2016-07-19T09:56:50.531Z,1011.09
2016-07-19T09:57:50.895Z,1011.1
2016-07-19T09:58:50.532Z,1011.11
2016-07-19T09:59:50.533Z,1011.11
2016-07-19T10:00:50.535Z,1011.1
2016-07-19T10:01:50.566Z,1011.06
2016-07-19T10:02:50.786Z,1011.1
2016-07-19T10:03:50.536Z,1011.07
2016-07-19T10:04:50.606Z,1011.09
2016-07-19T10:05:50.535Z,1011.08
2016-07-19T10:06:50.537Z,1010.99
2016-07-19T10:07:50.539Z,1011.01
2016-07-19T10:08:50.538Z,1011.02
2016-07-19T10:09:50.549Z,1010.99
2016-07-19T10:10:50.541Z,1011.03
2016-07-19T10:11:50.542Z,1011.04
2016-07-19T10:12:50.542Z,1011.03
2016-07-19T10:13:50.544Z,1011.03
2016-07-19T10:14:50.544Z,1011.06
2016-07-19T10:15:50.545Z,1011.06
2016-07-19T10:16:50.546Z,1011.04
2016-07-19T10:17:50.756Z,1011.01
2016-07-19T10:18:50.548Z,1011.02
2016-07-19T10:19:50.575Z,1011.06
2016-07-19T10:20:50.691Z,1011.03
2016-07-19T10:21:50.552Z,1011.02
2016-07-19T10:22:50.785Z,1011.02
2016-07-19T10:23:50.555Z,1010.97
2016-07-19T10:24:50.556Z,1011
2016-07-19T10:25:50.557Z,1011.01
2016-07-19T10:26:50.559Z,1011.03
2016-07-19T10:27:50.631Z,1011.01
2016-07-19T10:28:50.569Z,1011.04
2016-07-19T10:29:50.631Z,1011.06
2016-07-19T10:30:50.563Z,1011.02
2016-07-19T10:31:50.565Z,1011.06
2016-07-19T10:32:50.565Z,1011.06
2016-07-19T10:33:50.566Z,1011.07
2016-07-19T10:34:50.575Z,1011
2016-07-19T10:35:50.586Z,1011.03
2016-07-19T10:36:50.569Z,1010.96
2016-07-19T10:37:50.570Z,1010.97
2016-07-19T10:38:50.576Z,1010.93
2016-07-19T10:39:50.572Z,1010.95
2016-07-19T10:40:50.573Z,1010.95
2016-07-19T10:41:50.573Z,1010.94
2016-07-19T10:42:50.573Z,1010.95
2016-07-19T10:43:50.597Z,1010.88
2016-07-19T10:44:50.574Z,1010.94
2016-07-19T10:45:50.575Z,1010.94
2016-07-19T10:46:50.583Z,1010.91
2016-07-19T10:47:50.579Z,1010.89
2016-07-19T10:48:50.579Z,1010.85
2016-07-19T10:49:50.581Z,1010.87
2016-07-19T10:50:50.811Z,1010.87
2016-07-19T10:51:50.590Z,1010.85
2016-07-19T10:52:50.586Z,1010.85
2016-07-19T10:53:50.693Z,1010.81
2016-07-19T10:54:50.656Z,1010.84
2016-07-19T10:55:50.593Z,1010.84
2016-07-19T10:56:50.596Z,1010.88
2016-07-19T10:57:50.599Z,1010.86
2016-07-19T10:58:50.601Z,1010.83
2016-07-19T10:59:50.650Z,1010.83
2016-07-19T11:00:50.725Z,1010.79
2016-07-19T11:01:50.612Z,1010.84
2016-07-19T11:02:50.640Z,1010.81
2016-07-19T11:03:50.616Z,1010.84
2016-07-19T11:04:50.795Z,1010.82
2016-07-19T11:05:50.622Z,1010.78
2016-07-19T11:06:50.878Z,1010.82
2016-07-19T11:07:50.630Z,1010.81
2016-07-19T11:08:50.633Z,1010.82
2016-07-19T11:09:50.650Z,1010.81
2016-07-19T11:10:50.645Z,1010.83
2016-07-19T11:11:50.880Z,1010.79
2016-07-19T11:12:50.648Z,1010.76
2016-07-19T11:13:50.652Z,1010.79
2016-07-19T11:14:50.658Z,1010.77
2016-07-19T11:15:50.657Z,1010.74
2016-07-19T11:16:50.666Z,1010.72
2016-07-19T11:17:50.839Z,1010.73
2016-07-19T11:18:50.667Z,1010.78
2016-07-19T11:19:50.672Z,1010.69
2016-07-19T11:20:50.875Z,1010.74
2016-07-19T11:21:50.891Z,1010.72
2016-07-19T11:22:50.757Z,1010.72
2016-07-19T11:23:50.685Z,1010.7
2016-07-19T11:24:50.825Z,1010.71
2016-07-19T11:25:50.691Z,1010.71
2016-07-19T11:26:50.696Z,1010.71
2016-07-19T11:27:50.723Z,1010.68
2016-07-19T11:28:50.701Z,1010.66
2016-07-19T11:29:50.706Z,1010.65
2016-07-19T11:30:50.709Z,1010.64
2016-07-19T11:31:50.760Z,1010.67
2016-07-19T11:32:50.719Z,1010.65
2016-07-19T11:33:50.721Z,1010.59
2016-07-19T11:34:50.785Z,1010.59
2016-07-19T11:35:50.728Z,1010.59
2016-07-19T11:36:50.784Z,1010.57
2016-07-19T11:37:50.737Z,1010.61
2016-07-19T11:38:50.989Z,1010.6
2016-07-19T11:39:50.743Z,1010.56
2016-07-19T11:40:50.799Z,1010.57
2016-07-19T11:41:50.751Z,1010.56
2016-07-19T11:42:50.818Z,1010.56
2016-07-19T11:43:50.812Z,1010.55
2016-07-19T11:44:50.817Z,1010.49
2016-07-19T11:45:50.903Z,1010.5
2016-07-19T11:46:50.985Z,1010.49
2016-07-19T11:47:50.774Z,1010.49
2016-07-19T11:48:50.816Z,1010.5
2016-07-19T11:49:50.828Z,1010.46
2016-07-19T11:50:50.839Z,1010.43
2016-07-19T11:51:50.791Z,1010.44
2016-07-19T11:52:50.795Z,1010.41
2016-07-19T11:53:50.801Z,1010.35
2016-07-19T11:54:50.805Z,1010.43
2016-07-19T11:55:50.911Z,1010.39
2016-07-19T11:56:50.812Z,1010.38
2016-07-19T11:57:50.841Z,1010.39
2016-07-19T11:58:51.100Z,1010.38
2016-07-19T11:59:51.017Z,1010.42
2016-07-19T12:00:50.936Z,1010.4
2016-07-19T12:01:50.907Z,1010.42
2016-07-19T12:02:50.960Z,1010.44
2016-07-19T12:03:50.842Z,1010.4
2016-07-19T12:04:50.996Z,1010.34
2016-07-19T12:05:50.951Z,1010.34
2016-07-19T12:06:50.919Z,1010.34
2016-07-19T12:07:51.050Z,1010.33